createdAt,value
2019-03-19T00:00:15.443Z,2.83
2019-03-19T00:02:43.910Z,2.53
2019-03-19T00:05:12.839Z,3.27
2019-03-19T00:07:41.316Z,2.70
2019-03-19T00:10:10.397Z,2.73
2019-03-19T00:12:38.871Z,3.63
2019-03-19T00:15:09.763Z,3.33
2019-03-19T00:17:38.379Z,4.40
2019-03-19T00:20:12.611Z,6.07
2019-03-19T00:22:41.091Z,4.80
2019-03-19T00:25:09.795Z,6.17
2019-03-19T00:27:38.687Z,5.93
2019-03-19T00:30:12.805Z,5.57
2019-03-19T00:32:41.290Z,6.33
2019-03-19T00:35:09.931Z,6.70
2019-03-19T00:37:38.387Z,6.53
2019-03-19T00:40:09.103Z,7.03
2019-03-19T00:42:37.549Z,6.23
2019-03-19T00:45:09.070Z,7.17
2019-03-19T00:47:37.527Z,7.00
2019-03-19T00:50:08.748Z,7.83
2019-03-19T00:52:37.198Z,9.13
2019-03-19T00:55:06.912Z,7.93
2019-03-19T00:57:35.397Z,8.63
2019-03-19T01:00:07.427Z,8.00
2019-03-19T01:02:35.947Z,6.77
2019-03-19T01:05:05.452Z,7.57
2019-03-19T01:07:34.267Z,8.70
2019-03-19T01:10:02.800Z,8.73
2019-03-19T01:12:31.361Z,8.07
2019-03-19T01:14:59.825Z,8.77
2019-03-19T01:17:28.280Z,9.10
2019-03-19T01:19:57.011Z,8.73
2019-03-19T01:22:25.470Z,9.80
2019-03-19T01:24:54.403Z,7.33
2019-03-19T01:27:22.882Z,8.10
2019-03-19T01:29:51.631Z,8.67
2019-03-19T01:32:20.117Z,9.67
2019-03-19T01:34:48.571Z,10.77
2019-03-19T01:37:17.030Z,7.77
2019-03-19T01:39:45.513Z,8.60
2019-03-19T01:42:13.993Z,7.73
2019-03-19T01:44:42.457Z,8.17
2019-03-19T01:47:10.920Z,10.27
2019-03-19T01:49:39.395Z,9.13
2019-03-19T01:52:08.182Z,8.10
2019-03-19T01:54:36.636Z,7.83
2019-03-19T01:57:05.179Z,7.87
2019-03-19T01:59:33.654Z,7.90
2019-03-19T02:02:02.139Z,8.00
2019-03-19T02:04:30.577Z,7.83
2019-03-19T02:06:59.047Z,9.73
2019-03-19T02:09:27.525Z,7.17
2019-03-19T02:11:55.979Z,7.60
2019-03-19T02:14:24.710Z,9.27
2019-03-19T02:16:53.179Z,7.53
2019-03-19T02:19:21.984Z,7.87
2019-03-19T02:21:50.430Z,6.57
2019-03-19T02:24:18.894Z,6.80
2019-03-19T02:26:47.361Z,6.87
2019-03-19T02:29:15.829Z,6.83
2019-03-19T02:31:44.541Z,6.83
2019-03-19T02:34:13.003Z,7.47
2019-03-19T02:36:41.454Z,8.47
2019-03-19T02:39:09.927Z,7.17
2019-03-19T02:41:38.399Z,8.00
2019-03-19T02:44:07.313Z,9.07
2019-03-19T02:46:35.765Z,7.90
2019-03-19T02:49:04.223Z,6.80
2019-03-19T02:51:32.741Z,7.00
2019-03-19T02:54:01.219Z,7.93
2019-03-19T02:56:33.231Z,8.00
2019-03-19T02:58:59.899Z,5.50
2019-03-19T03:01:28.367Z,8.00
2019-03-19T03:03:56.853Z,7.27
2019-03-19T03:06:25.301Z,6.83
2019-03-19T03:08:53.873Z,8.07
2019-03-19T03:11:22.313Z,7.67
2019-03-19T03:13:50.772Z,6.70
2019-03-19T03:16:19.232Z,7.77
2019-03-19T03:18:47.697Z,6.57
2019-03-19T03:21:16.160Z,8.23
2019-03-19T03:23:44.625Z,7.53
2019-03-19T03:26:13.073Z,6.37
2019-03-19T03:28:41.553Z,7.57
2019-03-19T03:31:10.089Z,7.33
2019-03-19T03:33:38.536Z,8.50
2019-03-19T03:36:07.003Z,7.90
2019-03-19T03:38:35.446Z,8.13
2019-03-19T03:41:04.700Z,9.17
2019-03-19T03:43:33.440Z,8.10
2019-03-19T03:46:01.955Z,7.63
2019-03-19T03:48:30.408Z,7.60
2019-03-19T03:50:58.890Z,8.57
2019-03-19T03:53:27.348Z,9.03
2019-03-19T03:55:55.809Z,9.10
2019-03-19T03:58:24.366Z,9.33
2019-03-19T04:00:52.986Z,10.60
2019-03-19T04:03:21.598Z,10.10
2019-03-19T04:05:50.648Z,9.27
2019-03-19T04:08:19.104Z,10.53
2019-03-19T04:10:47.579Z,11.00
2019-03-19T04:13:16.050Z,11.07
2019-03-19T04:15:44.524Z,11.47
2019-03-19T04:18:13.086Z,7.87
2019-03-19T04:20:41.560Z,8.10
2019-03-19T04:23:10.120Z,8.00
2019-03-19T04:25:38.571Z,10.77
2019-03-19T04:28:07.029Z,8.17
2019-03-19T04:30:35.492Z,7.30
2019-03-19T04:33:04.111Z,7.77
2019-03-19T04:35:32.587Z,8.20
2019-03-19T04:38:01.065Z,11.57
2019-03-19T04:40:29.539Z,9.57
2019-03-19T04:42:57.995Z,7.90
2019-03-19T04:45:26.561Z,7.10
2019-03-19T04:47:55.008Z,7.57
2019-03-19T04:50:23.468Z,6.87
2019-03-19T04:52:52.251Z,8.50
2019-03-19T04:55:20.723Z,6.37
2019-03-19T04:57:49.170Z,8.13
2019-03-19T05:00:18.679Z,8.67
2019-03-19T05:02:47.151Z,8.87
2019-03-19T05:05:15.768Z,8.00
2019-03-19T05:07:44.317Z,7.77
2019-03-19T05:10:15.184Z,8.17
2019-03-19T05:12:43.716Z,8.23
2019-03-19T05:15:12.393Z,8.67
2019-03-19T05:17:40.856Z,7.47
2019-03-19T05:20:11.454Z,12.50
2019-03-19T05:22:40.280Z,7.73
2019-03-19T05:25:09.774Z,10.77
2019-03-19T05:27:38.382Z,8.23
2019-03-19T05:30:17.538Z,8.23
2019-03-19T05:32:46.020Z,8.07
2019-03-19T05:35:14.558Z,7.57
2019-03-19T05:37:43.071Z,8.47
2019-03-19T05:40:13.129Z,9.83
2019-03-19T05:42:41.663Z,9.00
2019-03-19T05:45:16.626Z,6.80
2019-03-19T05:47:45.247Z,9.20
2019-03-19T05:50:22.299Z,7.83
2019-03-19T05:52:50.760Z,9.37
2019-03-19T05:55:19.376Z,7.90
2019-03-19T05:57:49.868Z,10.93
2019-03-19T06:00:26.798Z,7.90
2019-03-19T06:02:55.252Z,7.37
2019-03-19T06:05:23.689Z,7.90
2019-03-19T06:07:52.187Z,7.40
2019-03-19T06:10:20.712Z,8.73
2019-03-19T06:12:49.153Z,7.63
2019-03-19T06:15:17.623Z,9.57
2019-03-19T06:17:46.079Z,8.00
2019-03-19T06:20:18.684Z,9.30
2019-03-19T06:22:47.132Z,10.17
2019-03-19T06:25:15.674Z,9.00
2019-03-19T06:27:44.527Z,10.00
2019-03-19T06:30:20.722Z,8.47
2019-03-19T06:32:49.190Z,9.90
2019-03-19T06:35:17.732Z,9.40
2019-03-19T06:37:46.318Z,9.90
2019-03-19T06:40:19.244Z,9.13
2019-03-19T06:42:47.730Z,8.47
2019-03-19T06:45:22.917Z,8.87
2019-03-19T06:47:51.045Z,10.93
2019-03-19T06:50:20.735Z,9.27
2019-03-19T06:52:49.187Z,8.77
2019-03-19T06:55:19.500Z,10.13
2019-03-19T06:57:48.009Z,7.67
2019-03-19T07:00:22.621Z,10.77
2019-03-19T07:02:51.226Z,7.77
2019-03-19T07:05:23.279Z,11.37
2019-03-19T07:07:51.838Z,11.20
2019-03-19T07:10:21.119Z,11.37
2019-03-19T07:12:49.647Z,9.43
2019-03-19T07:15:24.028Z,9.90
2019-03-19T07:17:52.499Z,9.20
2019-03-19T07:20:27.761Z,12.40
2019-03-19T07:22:56.606Z,10.77
2019-03-19T07:25:25.361Z,11.93
2019-03-19T07:27:53.815Z,12.37
2019-03-19T07:30:26.301Z,11.77
2019-03-19T07:32:54.840Z,14.90
2019-03-19T07:35:23.367Z,12.07
2019-03-19T07:37:51.867Z,14.63
2019-03-19T07:40:20.664Z,12.43
2019-03-19T07:42:49.126Z,11.63
2019-03-19T07:45:19.711Z,12.87
2019-03-19T07:47:48.258Z,13.33
2019-03-19T07:50:18.323Z,12.83
2019-03-19T07:52:46.865Z,15.97
2019-03-19T07:55:15.341Z,13.23
2019-03-19T07:57:43.817Z,16.43
2019-03-19T08:00:17.102Z,16.37
2019-03-19T08:02:46.628Z,20.33
2019-03-19T08:05:15.164Z,13.90
2019-03-19T08:07:43.986Z,16.30
2019-03-19T08:10:15.519Z,16.87
2019-03-19T08:12:44.013Z,16.20
2019-03-19T08:15:17.345Z,17.63
2019-03-19T08:17:45.804Z,14.57
2019-03-19T08:20:18.193Z,15.57
2019-03-19T08:22:46.731Z,15.03
2019-03-19T08:25:16.243Z,14.80
2019-03-19T08:27:44.969Z,17.60
2019-03-19T08:30:24.846Z,15.80
2019-03-19T08:32:53.606Z,19.30
2019-03-19T08:35:22.209Z,15.17
2019-03-19T08:37:50.662Z,16.33
2019-03-19T08:40:19.572Z,15.10
2019-03-19T08:42:48.122Z,16.67
2019-03-19T08:45:20.869Z,15.10
2019-03-19T08:47:49.386Z,13.73
2019-03-19T08:50:22.076Z,14.00
2019-03-19T08:52:50.571Z,14.10
2019-03-19T08:55:19.027Z,12.73
2019-03-19T08:57:47.552Z,13.70
2019-03-19T09:00:19.103Z,16.83
2019-03-19T09:02:47.706Z,14.53
2019-03-19T09:05:16.258Z,15.43
2019-03-19T09:07:44.769Z,14.63
2019-03-19T09:10:17.119Z,15.90
2019-03-19T09:12:48.169Z,13.50
2019-03-19T09:15:27.391Z,14.63
2019-03-19T09:17:55.848Z,10.47
2019-03-19T09:20:24.313Z,12.40
2019-03-19T09:22:52.766Z,18.00
2019-03-19T09:25:21.728Z,14.87
2019-03-19T09:27:50.200Z,12.27
2019-03-19T09:30:25.360Z,10.10
2019-03-19T09:32:53.818Z,12.47
2019-03-19T09:35:22.410Z,14.93
2019-03-19T09:37:58.360Z,14.50
2019-03-19T09:40:22.073Z,17.47
2019-03-19T09:42:50.555Z,15.53
2019-03-19T09:45:19.154Z,14.70
2019-03-19T09:47:48.132Z,18.03
2019-03-19T09:50:25.067Z,14.50
2019-03-19T09:52:55.286Z,13.27
2019-03-19T09:55:23.750Z,12.10
2019-03-19T09:57:52.190Z,13.40
2019-03-19T10:00:21.216Z,10.60
2019-03-19T10:02:49.738Z,10.37
2019-03-19T10:05:18.265Z,12.23
2019-03-19T10:07:46.802Z,13.57
2019-03-19T10:10:23.152Z,11.27
2019-03-19T10:12:51.729Z,10.27
2019-03-19T10:15:20.367Z,10.60
2019-03-19T10:17:49.133Z,9.87
2019-03-19T10:20:25.703Z,9.70
2019-03-19T10:22:54.329Z,12.20
2019-03-19T10:25:22.797Z,12.53
2019-03-19T10:27:51.316Z,11.40
2019-03-19T10:30:20.639Z,10.57
2019-03-19T10:32:49.438Z,10.70
2019-03-19T10:35:17.986Z,13.67
2019-03-19T10:37:46.912Z,13.73
2019-03-19T10:40:19.584Z,12.23
2019-03-19T10:42:48.337Z,8.87
2019-03-19T10:45:18.809Z,7.87
2019-03-19T10:47:47.260Z,8.23
2019-03-19T10:50:20.399Z,8.57
2019-03-19T10:52:49.376Z,8.47
2019-03-19T10:55:17.888Z,9.50
2019-03-19T10:57:46.397Z,10.03
2019-03-19T11:00:25.849Z,8.93
2019-03-19T11:02:54.511Z,9.77
2019-03-19T11:05:23.723Z,7.67
2019-03-19T11:07:52.805Z,7.30
2019-03-19T11:10:21.623Z,7.13
2019-03-19T11:12:50.075Z,8.13
2019-03-19T11:15:21.633Z,9.67
2019-03-19T11:17:50.153Z,8.70
2019-03-19T11:20:19.825Z,9.40
2019-03-19T11:22:48.469Z,10.73
2019-03-19T11:25:30.637Z,7.73
2019-03-19T11:27:59.294Z,8.43
2019-03-19T11:30:29.107Z,7.20
2019-03-19T11:32:57.645Z,7.90
2019-03-19T11:35:26.198Z,9.17
2019-03-19T11:37:54.906Z,8.80
2019-03-19T11:40:25.640Z,7.37
2019-03-19T11:42:53.915Z,6.27
2019-03-19T11:45:23.592Z,6.60
2019-03-19T11:47:52.179Z,5.33
2019-03-19T11:50:33.246Z,6.13
2019-03-19T11:53:01.526Z,5.67
2019-03-19T11:55:29.979Z,5.57
2019-03-19T11:57:58.457Z,6.03
2019-03-19T12:00:38.557Z,6.60
2019-03-19T12:03:15.359Z,5.87
2019-03-19T12:05:37.433Z,5.23
2019-03-19T12:08:06.190Z,8.43
2019-03-19T12:10:34.710Z,8.03
2019-03-19T12:13:03.272Z,8.30
2019-03-19T12:15:31.781Z,10.10
2019-03-19T12:18:00.643Z,8.03
2019-03-19T12:20:29.166Z,6.63
2019-03-19T12:22:57.633Z,8.10
2019-03-19T12:25:26.101Z,4.90
2019-03-19T12:27:54.617Z,8.73
2019-03-19T12:30:26.271Z,5.40
2019-03-19T12:32:54.207Z,6.27
2019-03-19T12:35:22.670Z,8.03
2019-03-19T12:37:51.136Z,7.83
2019-03-19T12:40:22.688Z,6.33
2019-03-19T12:42:51.158Z,5.77
2019-03-19T12:45:20.871Z,5.23
2019-03-19T12:47:49.670Z,4.43
2019-03-19T12:50:21.227Z,5.97
2019-03-19T12:52:49.749Z,3.67
2019-03-19T12:55:18.295Z,4.77
2019-03-19T12:57:46.833Z,5.53
2019-03-19T13:00:18.403Z,4.60
2019-03-19T13:02:46.923Z,4.13
2019-03-19T13:05:15.446Z,4.47
2019-03-19T13:07:43.995Z,4.17
2019-03-19T13:10:19.390Z,6.53
2019-03-19T13:12:47.925Z,7.17
2019-03-19T13:15:19.277Z,5.80
2019-03-19T13:17:48.447Z,6.23
2019-03-19T13:20:21.379Z,6.83
2019-03-19T13:22:50.230Z,7.87
2019-03-19T13:25:20.346Z,8.43
2019-03-19T13:27:48.788Z,6.33
2019-03-19T13:30:23.147Z,7.03
2019-03-19T13:32:51.677Z,7.33
2019-03-19T13:35:20.527Z,6.77
2019-03-19T13:37:48.973Z,5.80
2019-03-19T13:40:18.261Z,8.37
2019-03-19T13:42:46.726Z,5.67
2019-03-19T13:45:16.624Z,6.50
2019-03-19T13:47:45.235Z,7.63
2019-03-19T13:50:16.290Z,17.53
2019-03-19T13:52:44.874Z,12.53
2019-03-19T13:55:18.832Z,12.10
2019-03-19T13:57:47.300Z,8.60
2019-03-19T14:00:16.714Z,8.10
2019-03-19T14:02:45.293Z,8.60
2019-03-19T14:05:14.808Z,8.57
2019-03-19T14:07:43.690Z,8.20
2019-03-19T14:10:14.172Z,6.07
2019-03-19T14:12:42.956Z,8.40
2019-03-19T14:15:13.646Z,7.13
2019-03-19T14:17:42.431Z,6.40
2019-03-19T14:20:13.361Z,10.73
2019-03-19T14:22:42.025Z,5.47
2019-03-19T14:25:11.755Z,8.00
2019-03-19T14:27:40.220Z,7.17
2019-03-19T14:30:11.787Z,7.70
2019-03-19T14:32:40.260Z,7.00
2019-03-19T14:35:09.257Z,5.17
2019-03-19T14:37:37.707Z,5.07
2019-03-19T14:40:09.424Z,8.23
2019-03-19T14:42:37.881Z,5.80
2019-03-19T14:45:08.785Z,7.83
2019-03-19T14:47:37.243Z,6.20
2019-03-19T14:50:09.131Z,5.20
2019-03-19T14:52:37.701Z,7.73
2019-03-19T14:55:06.691Z,4.93
2019-03-19T14:57:35.257Z,5.87
2019-03-19T15:00:05.519Z,5.87
2019-03-19T15:02:33.990Z,6.17
2019-03-19T15:05:02.532Z,6.77
2019-03-19T15:07:31.057Z,5.30
2019-03-19T15:09:59.527Z,5.50
2019-03-19T15:12:28.007Z,4.80
2019-03-19T15:14:56.500Z,5.83
2019-03-19T15:17:25.239Z,4.93
2019-03-19T15:19:53.700Z,7.33
2019-03-19T15:22:32.104Z,5.80
2019-03-19T15:24:52.702Z,7.40
2019-03-19T15:27:21.172Z,5.90
2019-03-19T15:29:49.641Z,7.83
2019-03-19T15:32:18.115Z,3.47
2019-03-19T15:34:46.588Z,5.10
2019-03-19T15:37:15.053Z,6.83
2019-03-19T15:39:43.543Z,7.47
2019-03-19T15:42:12.080Z,9.77
2019-03-19T15:44:40.549Z,6.33
2019-03-19T15:47:09.010Z,6.03
2019-03-19T15:49:38.467Z,6.57
2019-03-19T15:52:07.209Z,9.67
2019-03-19T15:54:35.725Z,12.33
2019-03-19T15:57:04.354Z,6.10
2019-03-19T15:59:32.813Z,4.97
2019-03-19T16:02:01.269Z,5.30
2019-03-19T16:04:29.723Z,6.67
2019-03-19T16:06:58.224Z,4.73
2019-03-19T16:09:26.750Z,7.43
2019-03-19T16:11:55.311Z,6.00
2019-03-19T16:14:23.763Z,5.77
2019-03-19T16:16:52.224Z,6.70
2019-03-19T16:19:20.770Z,6.10
2019-03-19T16:21:49.339Z,7.27
2019-03-19T16:24:17.794Z,4.53
2019-03-19T16:26:46.247Z,7.37
2019-03-19T16:29:15.020Z,4.03
2019-03-19T16:31:50.935Z,6.57
2019-03-19T16:34:13.724Z,7.67
2019-03-19T16:36:42.199Z,6.63
2019-03-19T16:39:11.932Z,8.37
2019-03-19T16:41:40.411Z,11.73
2019-03-19T16:44:08.861Z,22.47
2019-03-19T16:46:37.600Z,10.13
2019-03-19T16:49:06.053Z,7.67
2019-03-19T16:51:34.604Z,45.00
2019-03-19T16:54:03.064Z,22.57
2019-03-19T16:56:31.561Z,11.23
2019-03-19T16:59:00.031Z,15.80
2019-03-19T17:01:28.525Z,32.33
2019-03-19T17:03:56.974Z,15.87
2019-03-19T17:06:25.713Z,11.97
2019-03-19T17:08:54.177Z,12.83
2019-03-19T17:11:22.646Z,10.67
2019-03-19T17:13:51.189Z,6.43
2019-03-19T17:16:19.637Z,10.70
2019-03-19T17:18:48.113Z,6.80
2019-03-19T17:21:16.917Z,8.40
2019-03-19T17:23:45.411Z,5.73
2019-03-19T17:26:14.175Z,4.33
2019-03-19T17:28:42.718Z,5.53
2019-03-19T17:31:11.161Z,4.57
2019-03-19T17:33:39.606Z,7.03
2019-03-19T17:36:08.083Z,4.37
2019-03-19T17:38:36.535Z,2.17
2019-03-19T17:41:05.059Z,3.50
2019-03-19T17:43:33.858Z,4.43
2019-03-19T17:46:02.307Z,6.83
2019-03-19T17:48:31.127Z,4.80
2019-03-19T17:50:59.600Z,3.40
2019-03-19T17:53:28.074Z,3.80
2019-03-19T17:55:56.547Z,5.60
2019-03-19T17:58:25.065Z,3.23
2019-03-19T18:00:54.692Z,5.83
2019-03-19T18:03:23.157Z,3.97
2019-03-19T18:05:51.921Z,4.57
2019-03-19T18:08:20.403Z,4.23
2019-03-19T18:10:48.944Z,5.00
2019-03-19T18:13:17.407Z,3.83
2019-03-19T18:15:45.853Z,4.00
2019-03-19T18:18:14.339Z,3.70
2019-03-19T18:20:42.812Z,4.83
2019-03-19T18:23:11.267Z,5.63
2019-03-19T18:25:39.744Z,5.07
2019-03-19T18:28:08.206Z,4.27
2019-03-19T18:30:36.972Z,3.87
2019-03-19T18:33:05.851Z,6.07
2019-03-19T18:35:34.324Z,4.90
2019-03-19T18:38:03.211Z,6.00
2019-03-19T18:40:31.755Z,7.07
2019-03-19T18:43:00.487Z,4.33
2019-03-19T18:45:28.949Z,4.73
2019-03-19T18:47:57.765Z,5.60
2019-03-19T18:50:26.229Z,5.03
2019-03-19T18:52:54.716Z,6.07
2019-03-19T18:55:23.175Z,5.60
2019-03-19T18:57:51.656Z,3.23
2019-03-19T19:00:22.126Z,5.80
2019-03-19T19:02:51.240Z,5.03
2019-03-19T19:05:20.946Z,5.70
2019-03-19T19:07:49.397Z,2.73
2019-03-19T19:10:20.931Z,4.90
2019-03-19T19:12:48.825Z,8.17
2019-03-19T19:15:21.208Z,5.63
2019-03-19T19:17:49.980Z,3.57
2019-03-19T19:20:18.993Z,11.30
2019-03-19T19:22:47.528Z,4.50
2019-03-19T19:25:20.530Z,4.13
2019-03-19T19:27:48.979Z,4.00
2019-03-19T19:30:26.227Z,6.57
2019-03-19T19:33:01.594Z,5.83
2019-03-19T19:35:25.221Z,5.33
2019-03-19T19:37:53.693Z,5.83
2019-03-19T19:40:22.509Z,8.10
2019-03-19T19:42:51.013Z,4.50
2019-03-19T19:45:19.913Z,5.80
2019-03-19T19:47:48.459Z,6.40
2019-03-19T19:50:20.972Z,10.80
2019-03-19T19:52:49.823Z,5.33
2019-03-19T19:55:18.295Z,5.57
2019-03-19T19:57:47.109Z,5.40
2019-03-19T20:00:20.419Z,5.17
2019-03-19T20:02:48.956Z,6.87
2019-03-19T20:05:17.393Z,4.67
2019-03-19T20:07:46.137Z,10.27
2019-03-19T20:10:17.380Z,9.20
2019-03-19T20:12:45.923Z,8.43
2019-03-19T20:15:14.448Z,8.63
2019-03-19T20:17:42.972Z,8.30
2019-03-19T20:20:17.170Z,8.70
2019-03-19T20:22:45.677Z,7.37
2019-03-19T20:25:14.295Z,5.73
2019-03-19T20:27:42.845Z,10.17
2019-03-19T20:30:19.251Z,5.80
2019-03-19T20:32:47.732Z,5.20
2019-03-19T20:35:16.549Z,4.60
2019-03-19T20:37:44.985Z,5.67
2019-03-19T20:40:15.007Z,7.30
2019-03-19T20:42:43.677Z,7.23
2019-03-19T20:45:16.380Z,6.87
2019-03-19T20:47:44.829Z,5.87
2019-03-19T20:50:22.057Z,6.37
2019-03-19T20:52:50.530Z,5.37
2019-03-19T20:55:18.970Z,9.17
2019-03-19T20:57:47.448Z,1.93
2019-03-19T21:00:17.359Z,4.87
2019-03-19T21:02:45.995Z,4.37
2019-03-19T21:05:14.452Z,6.47
2019-03-19T21:07:42.936Z,6.60
2019-03-19T21:10:21.857Z,5.80
2019-03-19T21:12:50.602Z,4.83
2019-03-19T21:15:29.553Z,6.83
2019-03-19T21:17:58.163Z,7.53
2019-03-19T21:20:26.747Z,3.97
2019-03-19T21:22:55.291Z,5.47
2019-03-19T21:25:23.861Z,3.63
2019-03-19T21:27:52.306Z,4.93
2019-03-19T21:30:21.801Z,5.60
2019-03-19T21:32:50.347Z,7.27
2019-03-19T21:35:22.893Z,6.97
2019-03-19T21:37:51.437Z,4.17
2019-03-19T21:40:20.248Z,6.10
2019-03-19T21:42:49.226Z,5.23
2019-03-19T21:45:19.419Z,3.50
2019-03-19T21:47:48.298Z,4.87
2019-03-19T21:50:18.365Z,3.50
2019-03-19T21:52:46.828Z,5.77
2019-03-19T21:55:15.363Z,3.03
2019-03-19T21:57:43.856Z,6.90
2019-03-19T22:00:20.649Z,3.93
2019-03-19T22:02:49.176Z,6.83
2019-03-19T22:05:17.721Z,6.53
2019-03-19T22:07:46.280Z,6.40
2019-03-19T22:10:17.807Z,7.27
2019-03-19T22:12:48.998Z,11.90
2019-03-19T22:15:24.638Z,8.97
2019-03-19T22:17:53.204Z,15.43
2019-03-19T22:20:21.945Z,5.83
2019-03-19T22:22:50.421Z,7.77
2019-03-19T22:25:18.870Z,8.70
2019-03-19T22:27:47.364Z,6.10
2019-03-19T22:30:19.204Z,6.03
2019-03-19T22:32:47.718Z,5.60
2019-03-19T22:35:16.257Z,6.73
2019-03-19T22:37:44.752Z,3.73
2019-03-19T22:40:16.865Z,3.30
2019-03-19T22:42:45.599Z,6.53
2019-03-19T22:45:15.406Z,4.97
2019-03-19T22:47:43.964Z,5.07
2019-03-19T22:50:14.357Z,7.43
2019-03-19T22:52:42.899Z,3.77
2019-03-19T22:55:12.791Z,5.67
2019-03-19T22:57:41.311Z,3.17
2019-03-19T23:00:16.152Z,7.43
2019-03-19T23:02:44.942Z,3.60
2019-03-19T23:05:15.245Z,2.53
2019-03-19T23:07:43.704Z,2.23
2019-03-19T23:10:12.301Z,4.83
2019-03-19T23:12:40.829Z,3.33
2019-03-19T23:15:11.770Z,3.53
2019-03-19T23:17:40.436Z,3.90
2019-03-19T23:20:11.862Z,4.83
2019-03-19T23:22:40.442Z,5.10
2019-03-19T23:25:09.065Z,5.07
2019-03-19T23:27:37.524Z,3.37
2019-03-19T23:30:11.731Z,4.90
2019-03-19T23:32:40.183Z,4.70
2019-03-19T23:35:08.773Z,3.07
2019-03-19T23:37:37.237Z,4.57
2019-03-19T23:40:08.607Z,3.90
2019-03-19T23:42:37.083Z,3.47
2019-03-19T23:45:10.363Z,2.77
2019-03-19T23:47:38.969Z,3.97
2019-03-19T23:50:10.135Z,4.60
2019-03-19T23:52:38.611Z,6.97
2019-03-19T23:55:09.086Z,2.27
2019-03-19T23:57:37.572Z,7.93
